createdAt,value
2018-10-11T00:00:05.099Z,1010.10
2018-10-11T00:01:05.029Z,1010.11
2018-10-11T00:02:05.749Z,1010.12
2018-10-11T00:03:05.347Z,1010.07
2018-10-11T00:04:08.549Z,1010.12
2018-10-11T00:05:05.643Z,1010.12
2018-10-11T00:07:04.988Z,1010.13
2018-10-11T00:09:05.202Z,1010.13
2018-10-11T00:10:05.113Z,1010.14
2018-10-11T00:11:04.918Z,1010.13
2018-10-11T00:12:04.944Z,1010.12
2018-10-11T00:13:04.862Z,1010.12
2018-10-11T00:14:04.825Z,1010.11
2018-10-11T00:15:05.112Z,1010.13
2018-10-11T00:17:05.036Z,1010.13
2018-10-11T00:19:04.748Z,1010.09
2018-10-11T00:20:04.821Z,1010.10
2018-10-11T00:21:05.066Z,1010.06
2018-10-11T00:22:04.760Z,1010.07
2018-10-11T00:23:04.771Z,1010.09
2018-10-11T00:24:04.672Z,1010.03
2018-10-11T00:26:04.702Z,1010.04
2018-10-11T00:27:04.620Z,1010.03
2018-10-11T00:28:04.904Z,1010.03
2018-10-11T00:29:04.630Z,1010.04
2018-10-11T00:30:04.572Z,1010.09
2018-10-11T00:31:04.663Z,1010.03
2018-10-11T00:32:04.549Z,1010.01
2018-10-11T00:33:04.588Z,1009.98
2018-10-11T00:34:04.814Z,1009.96
2018-10-11T00:35:04.495Z,1009.99
2018-10-11T00:36:04.481Z,1009.95
2018-10-11T00:37:04.511Z,1009.96
2018-10-11T00:38:04.475Z,1009.94
2018-10-11T00:39:04.429Z,1009.91
2018-10-11T00:40:04.822Z,1009.87
2018-10-11T00:41:04.451Z,1009.90
2018-10-11T00:42:04.435Z,1009.88
2018-10-11T00:43:04.375Z,1009.88
2018-10-11T00:44:04.355Z,1009.88
2018-10-11T00:45:04.337Z,1009.87
2018-10-11T00:46:04.322Z,1009.86
2018-10-11T00:47:04.656Z,1009.84
2018-10-11T00:48:04.290Z,1009.91
2018-10-11T00:49:04.326Z,1009.86
2018-10-11T00:50:04.256Z,1009.90
2018-10-11T00:51:04.238Z,1009.90
2018-10-11T00:52:04.234Z,1009.90
2018-10-11T00:53:04.210Z,1009.91
2018-10-11T00:54:04.596Z,1009.88
2018-10-11T00:56:04.212Z,1009.89
2018-10-11T00:57:04.250Z,1009.90
2018-10-11T00:58:04.132Z,1009.88
2018-10-11T00:59:04.114Z,1009.82
2018-10-11T01:00:04.096Z,1009.86
2018-10-11T01:01:04.431Z,1009.85
2018-10-11T01:02:04.066Z,1009.85
2018-10-11T01:03:04.153Z,1009.81
2018-10-11T01:04:04.086Z,1009.79
2018-10-11T01:05:04.022Z,1009.72
2018-10-11T01:06:04.006Z,1009.73
2018-10-11T01:07:04.300Z,1009.68
2018-10-11T01:08:05.479Z,1009.68
2018-10-11T01:09:04.051Z,1009.70
2018-10-11T01:10:04.111Z,1009.68
2018-10-11T01:11:03.927Z,1009.69
2018-10-11T01:12:03.912Z,1009.64
2018-10-11T01:13:03.895Z,1009.66
2018-10-11T01:14:03.889Z,1009.66
2018-10-11T01:15:04.212Z,1009.58
2018-10-11T01:16:03.898Z,1009.63
2018-10-11T01:17:03.931Z,1009.63
2018-10-11T01:18:05.012Z,1009.66
2018-10-11T01:19:03.804Z,1009.64
2018-10-11T01:20:03.797Z,1009.61
2018-10-11T01:21:03.763Z,1009.60
2018-10-11T01:22:04.147Z,1009.64
2018-10-11T01:23:03.737Z,1009.63
2018-10-11T01:24:03.715Z,1009.61
2018-10-11T01:25:03.702Z,1009.65
2018-10-11T01:26:03.685Z,1009.59
2018-10-11T01:27:03.678Z,1009.60
2018-10-11T01:28:03.652Z,1009.57
2018-10-11T01:29:04.039Z,1009.54
2018-10-11T01:30:03.693Z,1009.53
2018-10-11T01:31:03.609Z,1009.54
2018-10-11T01:32:03.596Z,1009.54
2018-10-11T01:33:03.663Z,1009.50
2018-10-11T01:34:03.556Z,1009.54
2018-10-11T01:35:03.848Z,1009.53
2018-10-11T01:36:03.523Z,1009.58
2018-10-11T01:37:03.568Z,1009.52
2018-10-11T01:38:03.544Z,1009.54
2018-10-11T01:39:03.496Z,1009.56
2018-10-11T01:40:03.465Z,1009.49
2018-10-11T01:41:03.752Z,1009.49
2018-10-11T01:42:03.434Z,1009.52
2018-10-11T01:43:03.411Z,1009.50
2018-10-11T01:45:03.462Z,1009.49
2018-10-11T01:46:03.367Z,1009.46
2018-10-11T01:47:03.703Z,1009.46
2018-10-11T01:49:03.327Z,1009.49
2018-10-11T01:50:03.312Z,1009.47
2018-10-11T01:51:03.374Z,1009.47
2018-10-11T01:53:03.558Z,1009.41
2018-10-11T01:54:03.342Z,1009.40
2018-10-11T01:55:03.218Z,1009.36
2018-10-11T01:56:03.209Z,1009.29
2018-10-11T01:57:03.196Z,1009.25
2018-10-11T01:58:03.222Z,1009.22
2018-10-11T01:59:03.635Z,1009.22
2018-10-11T02:00:03.143Z,1009.18
2018-10-11T02:01:03.216Z,1009.19
2018-10-11T02:03:03.101Z,1009.19
2018-10-11T02:04:03.077Z,1009.16
2018-10-11T02:05:03.506Z,1009.14
2018-10-11T02:06:03.040Z,1009.14
2018-10-11T02:07:03.024Z,1009.13
2018-10-11T02:08:03.060Z,1009.09
2018-10-11T02:09:02.996Z,1009.06
2018-10-11T02:10:03.079Z,1009.09
2018-10-11T02:11:03.325Z,1009.10
2018-10-11T02:12:02.993Z,1009.12
2018-10-11T02:13:03.020Z,1009.10
2018-10-11T02:14:02.961Z,1009.18
2018-10-11T02:15:02.893Z,1009.13
2018-10-11T02:16:02.898Z,1009.15
2018-10-11T02:17:02.897Z,1009.16
2018-10-11T02:18:03.149Z,1009.10
2018-10-11T02:19:02.880Z,1009.09
2018-10-11T02:20:02.866Z,1009.09
2018-10-11T02:21:02.858Z,1009.05
2018-10-11T02:22:02.782Z,1009.02
2018-10-11T02:23:02.771Z,1009.01
2018-10-11T02:24:02.752Z,1008.97
2018-10-11T02:25:03.089Z,1008.94
2018-10-11T02:26:02.722Z,1008.97
2018-10-11T02:27:02.713Z,1008.88
2018-10-11T02:28:02.687Z,1008.87
2018-10-11T02:31:02.941Z,1008.85
2018-10-11T02:32:02.765Z,1008.87
2018-10-11T02:33:02.680Z,1008.86
2018-10-11T02:35:02.573Z,1008.87
2018-10-11T02:36:03.123Z,1008.84
2018-10-11T02:37:02.547Z,1008.84
2018-10-11T02:38:02.829Z,1008.88
2018-10-11T02:39:02.522Z,1008.91
2018-10-11T02:40:02.539Z,1008.91
2018-10-11T02:41:02.475Z,1008.88
2018-10-11T02:42:02.463Z,1008.89
2018-10-11T02:43:02.455Z,1008.86
2018-10-11T02:44:02.426Z,1008.81
2018-10-11T02:45:02.761Z,1008.79
2018-10-11T02:46:02.393Z,1008.75
2018-10-11T02:47:02.375Z,1008.76
2018-10-11T02:48:02.363Z,1008.71
2018-10-11T02:49:02.642Z,1008.72
2018-10-11T02:50:02.402Z,1008.68
2018-10-11T02:51:02.338Z,1008.67
2018-10-11T02:52:02.659Z,1008.67
2018-10-11T02:53:02.290Z,1008.68
2018-10-11T02:54:02.260Z,1008.69
2018-10-11T02:55:02.310Z,1008.73
2018-10-11T02:57:02.322Z,1008.72
2018-10-11T02:58:02.234Z,1008.69
2018-10-11T03:00:02.468Z,1008.71
2018-10-11T03:01:02.155Z,1008.69
2018-10-11T03:02:02.180Z,1008.70
2018-10-11T03:03:02.114Z,1008.68
2018-10-11T03:04:02.255Z,1008.68
2018-10-11T03:05:02.155Z,1008.66
2018-10-11T03:06:02.371Z,1008.67
2018-10-11T03:07:02.046Z,1008.65
2018-10-11T03:08:02.029Z,1008.66
2018-10-11T03:09:02.018Z,1008.63
2018-10-11T03:10:02.051Z,1008.66
2018-10-11T03:11:01.984Z,1008.61
2018-10-11T03:12:02.270Z,1008.63
2018-10-11T03:13:01.961Z,1008.62
2018-10-11T03:14:01.934Z,1008.61
2018-10-11T03:15:01.913Z,1008.66
2018-10-11T03:16:02.101Z,1008.57
2018-10-11T03:17:01.886Z,1008.58
2018-10-11T03:19:02.154Z,1008.62
2018-10-11T03:20:02.306Z,1008.62
2018-10-11T03:22:02.054Z,1008.67
2018-10-11T03:23:01.786Z,1008.68
2018-10-11T03:24:01.874Z,1008.70
2018-10-11T03:25:02.102Z,1008.64
2018-10-11T03:26:01.737Z,1008.64
2018-10-11T03:27:01.718Z,1008.63
2018-10-11T03:28:01.785Z,1008.58
2018-10-11T03:29:01.770Z,1008.65
2018-10-11T03:30:01.756Z,1008.57
2018-10-11T03:31:02.039Z,1008.53
2018-10-11T03:32:01.725Z,1008.49
2018-10-11T03:33:01.649Z,1008.48
2018-10-11T03:34:01.602Z,1008.48
2018-10-11T03:35:01.634Z,1008.46
2018-10-11T03:36:01.579Z,1008.44
2018-10-11T03:37:01.950Z,1008.38
2018-10-11T03:38:01.622Z,1008.34
2018-10-11T03:39:01.604Z,1008.37
2018-10-11T03:40:01.503Z,1008.37
2018-10-11T03:41:01.568Z,1008.34
2018-10-11T03:42:01.465Z,1008.34
2018-10-11T03:43:01.752Z,1008.36
2018-10-11T03:44:01.442Z,1008.34
2018-10-11T03:45:01.494Z,1008.31
2018-10-11T03:46:01.518Z,1008.28
2018-10-11T03:47:01.447Z,1008.28
2018-10-11T03:48:01.373Z,1008.25
2018-10-11T03:49:01.353Z,1008.24
2018-10-11T03:50:01.653Z,1008.21
2018-10-11T03:51:01.324Z,1008.20
2018-10-11T03:52:01.302Z,1008.22
2018-10-11T03:53:01.437Z,1008.26
2018-10-11T03:54:01.275Z,1008.26
2018-10-11T03:55:01.332Z,1008.30
2018-10-11T03:56:01.553Z,1008.31
2018-10-11T03:57:01.527Z,1008.31
2018-10-11T03:58:01.204Z,1008.33
2018-10-11T03:59:01.485Z,1008.32
2018-10-11T04:00:01.328Z,1008.32
2018-10-11T04:01:01.157Z,1008.37
2018-10-11T04:02:01.141Z,1008.38
2018-10-11T04:03:01.120Z,1008.40
2018-10-11T04:04:01.558Z,1008.40
2018-10-11T04:05:01.140Z,1008.49
2018-10-11T04:06:01.068Z,1008.44
2018-10-11T04:07:01.180Z,1008.47
2018-10-11T04:08:01.194Z,1008.45
2018-10-11T04:09:01.025Z,1008.46
2018-10-11T04:10:01.002Z,1008.44
2018-10-11T04:11:01.284Z,1008.44
2018-10-11T04:12:01.070Z,1008.39
2018-10-11T04:13:00.959Z,1008.40
2018-10-11T04:14:00.935Z,1008.34
2018-10-11T04:15:01.320Z,1008.34
2018-10-11T04:16:00.892Z,1008.34
2018-10-11T04:17:00.890Z,1008.33
2018-10-11T04:18:01.162Z,1008.37
2018-10-11T04:19:00.857Z,1008.38
2018-10-11T04:20:00.831Z,1008.36
2018-10-11T04:22:00.804Z,1008.28
2018-10-11T04:23:00.822Z,1008.25
2018-10-11T04:24:00.871Z,1008.19
2018-10-11T04:25:01.076Z,1008.21
2018-10-11T04:26:00.808Z,1008.19
2018-10-11T04:27:00.718Z,1008.22
2018-10-11T04:28:00.750Z,1008.18
2018-10-11T04:29:00.723Z,1008.20
2018-10-11T04:30:00.736Z,1008.18
2018-10-11T04:31:00.737Z,1008.21
2018-10-11T04:32:00.926Z,1008.18
2018-10-11T04:33:00.674Z,1008.18
2018-10-11T04:34:00.736Z,1008.19
2018-10-11T04:35:00.643Z,1008.18
2018-10-11T04:36:00.647Z,1008.19
2018-10-11T04:37:00.985Z,1008.15
2018-10-11T04:38:00.969Z,1008.17
2018-10-11T04:39:00.831Z,1008.14
2018-10-11T04:40:00.591Z,1008.15
2018-10-11T04:41:00.495Z,1008.16
2018-10-11T04:42:00.456Z,1008.15
2018-10-11T04:44:00.871Z,1008.14
2018-10-11T04:45:00.456Z,1008.17
2018-10-11T04:46:00.501Z,1008.19
2018-10-11T04:47:00.462Z,1008.17
2018-10-11T04:48:00.485Z,1008.20
2018-10-11T04:49:00.437Z,1008.20
2018-10-11T04:50:00.632Z,1008.25
2018-10-11T04:51:00.326Z,1008.24
2018-10-11T04:52:00.309Z,1008.21
2018-10-11T04:53:00.283Z,1008.25
2018-10-11T04:54:00.259Z,1008.23
2018-10-11T04:55:00.252Z,1008.24
2018-10-11T04:57:00.557Z,1008.24
2018-10-11T04:58:00.244Z,1008.21
2018-10-11T04:59:01.091Z,1008.28
2018-10-11T05:00:00.725Z,1008.30
2018-10-11T05:01:00.245Z,1008.28
2018-10-11T05:02:00.235Z,1008.25
2018-10-11T05:03:00.407Z,1008.24
2018-10-11T05:04:00.192Z,1008.28
2018-10-11T05:05:00.123Z,1008.26
2018-10-11T05:06:00.055Z,1008.27
2018-10-11T05:07:00.094Z,1008.26
2018-10-11T05:08:00.192Z,1008.30
2018-10-11T05:09:00.774Z,1008.29
2018-10-11T05:09:59.993Z,1008.33
2018-10-11T05:10:59.980Z,1008.30
2018-10-11T05:12:00.090Z,1008.32
2018-10-11T05:12:59.979Z,1008.34
2018-10-11T05:13:59.921Z,1008.26
2018-10-11T05:15:00.061Z,1008.25
2018-10-11T05:16:00.183Z,1008.29
2018-10-11T05:16:59.879Z,1008.26
2018-10-11T05:18:00.153Z,1008.27
2018-10-11T05:18:59.831Z,1008.23
2018-10-11T05:19:59.991Z,1008.29
2018-10-11T05:21:00.057Z,1008.28
2018-10-11T05:21:59.775Z,1008.23
2018-10-11T05:22:59.764Z,1008.21
2018-10-11T05:23:59.746Z,1008.26
2018-10-11T05:24:59.792Z,1008.24
2018-10-11T05:26:00.002Z,1008.20
2018-10-11T05:27:00.052Z,1008.20
2018-10-11T05:27:59.682Z,1008.18
2018-10-11T05:28:59.967Z,1008.19
2018-10-11T05:29:59.922Z,1008.20
2018-10-11T05:30:59.996Z,1008.21
2018-10-11T05:31:59.871Z,1008.20
2018-10-11T05:33:59.590Z,1008.27
2018-10-11T05:34:59.611Z,1008.23
2018-10-11T05:35:59.926Z,1008.27
2018-10-11T05:36:59.589Z,1008.29
2018-10-11T05:37:59.609Z,1008.29
2018-10-11T05:39:00.196Z,1008.31
2018-10-11T05:39:59.475Z,1008.36
2018-10-11T05:41:59.446Z,1008.36
2018-10-11T05:43:00.152Z,1008.35
2018-10-11T05:43:59.663Z,1008.36
2018-10-11T05:44:59.416Z,1008.38
2018-10-11T05:45:59.688Z,1008.37
2018-10-11T05:46:59.385Z,1008.39
2018-10-11T05:47:59.429Z,1008.36
2018-10-11T05:48:59.418Z,1008.32
2018-10-11T05:49:59.662Z,1008.26
2018-10-11T05:50:59.672Z,1008.23
2018-10-11T05:51:59.297Z,1008.18
2018-10-11T05:53:59.354Z,1008.14
2018-10-11T05:54:59.577Z,1008.15
2018-10-11T05:55:59.203Z,1008.19
2018-10-11T05:56:59.640Z,1008.20
2018-10-11T05:57:59.200Z,1008.20
2018-10-11T05:58:59.170Z,1008.22
2018-10-11T05:59:59.147Z,1008.24
2018-10-11T06:00:59.684Z,1008.27
2018-10-11T06:01:59.143Z,1008.33
2018-10-11T06:03:59.110Z,1008.43
2018-10-11T06:04:59.076Z,1008.40
2018-10-11T06:05:59.086Z,1008.47
2018-10-11T06:07:59.002Z,1008.41
2018-10-11T06:08:59.301Z,1008.41
2018-10-11T06:09:59.024Z,1008.38
2018-10-11T06:10:59.124Z,1008.35
2018-10-11T06:11:59.009Z,1008.33
2018-10-11T06:12:58.926Z,1008.28
2018-10-11T06:13:58.899Z,1008.26
2018-10-11T06:14:59.185Z,1008.26
2018-10-11T06:15:58.921Z,1008.20
2018-10-11T06:17:58.883Z,1008.10
2018-10-11T06:19:58.801Z,1008.00
2018-10-11T06:20:59.149Z,1007.99
2018-10-11T06:21:58.827Z,1008.02
2018-10-11T06:23:02.499Z,1008.04
2018-10-11T06:23:59.527Z,1008.03
2018-10-11T06:24:59.454Z,1008.04
2018-10-11T06:25:59.171Z,1008.07
2018-10-11T06:26:59.685Z,1008.02
2018-10-11T06:27:59.096Z,1007.97
2018-10-11T06:28:58.719Z,1007.89
2018-10-11T06:29:58.812Z,1007.91
2018-10-11T06:30:58.615Z,1007.89
2018-10-11T06:31:58.680Z,1007.88
2018-10-11T06:32:58.888Z,1007.91
2018-10-11T06:33:58.615Z,1007.94
2018-10-11T06:34:58.563Z,1007.97
2018-10-11T06:36:58.518Z,1008.05
2018-10-11T06:37:58.852Z,1008.05
2018-10-11T06:38:59.089Z,1008.09
2018-10-11T06:39:58.484Z,1008.20
2018-10-11T06:40:58.450Z,1008.23
2018-10-11T06:41:58.501Z,1008.19
2018-10-11T06:42:58.412Z,1008.23
2018-10-11T06:43:58.416Z,1008.22
2018-10-11T06:44:58.684Z,1008.21
2018-10-11T06:45:58.731Z,1008.18
2018-10-11T06:46:58.412Z,1008.12
2018-10-11T06:48:58.442Z,1008.09
2018-10-11T06:49:58.661Z,1008.11
2018-10-11T06:50:58.294Z,1008.15
2018-10-11T06:51:58.415Z,1008.12
2018-10-11T06:52:58.555Z,1008.17
2018-10-11T06:53:58.336Z,1008.16
2018-10-11T06:54:58.264Z,1008.17
2018-10-11T06:55:59.642Z,1008.15
2018-10-11T06:56:58.269Z,1008.17
2018-10-11T06:57:58.165Z,1008.16
2018-10-11T06:58:58.216Z,1008.21
2018-10-11T07:00:58.364Z,1008.35
2018-10-11T07:01:58.267Z,1008.38
2018-10-11T07:02:58.085Z,1008.42
2018-10-11T07:03:58.085Z,1008.51
2018-10-11T07:04:58.698Z,1008.57
2018-10-11T07:05:58.785Z,1008.57
2018-10-11T07:06:58.317Z,1008.60
2018-10-11T07:07:58.026Z,1008.62
2018-10-11T07:08:58.104Z,1008.67
2018-10-11T07:09:57.995Z,1008.67
2018-10-11T07:10:57.959Z,1008.62
2018-10-11T07:11:57.949Z,1008.67
2018-10-11T07:12:57.936Z,1008.73
2018-10-11T07:13:58.307Z,1008.77
2018-10-11T07:14:57.899Z,1008.75
2018-10-11T07:15:57.865Z,1008.76
2018-10-11T07:16:57.857Z,1008.75
2018-10-11T07:17:57.836Z,1008.70
2018-10-11T07:18:57.827Z,1008.69
2018-10-11T07:20:58.138Z,1008.67
2018-10-11T07:21:57.838Z,1008.71
2018-10-11T07:22:57.906Z,1008.73
2018-10-11T07:23:57.738Z,1008.78
2018-10-11T07:24:57.847Z,1008.75
2018-10-11T07:25:57.801Z,1008.77
2018-10-11T07:26:57.748Z,1008.69
2018-10-11T07:27:58.054Z,1008.73
2018-10-11T07:28:57.681Z,1008.70
2018-10-11T07:29:57.652Z,1008.72
2018-10-11T07:30:57.680Z,1008.73
2018-10-11T07:31:57.616Z,1008.71
2018-10-11T07:32:57.903Z,1008.69
2018-10-11T07:33:58.159Z,1008.73
2018-10-11T07:34:57.612Z,1008.69
2018-10-11T07:35:57.567Z,1008.72
2018-10-11T07:36:57.620Z,1008.73
2018-10-11T07:37:57.520Z,1008.75
2018-10-11T07:38:57.580Z,1008.69
2018-10-11T07:39:57.872Z,1008.64
2018-10-11T07:40:57.539Z,1008.65
2018-10-11T07:41:57.516Z,1008.67
2018-10-11T07:42:57.437Z,1008.68
2018-10-11T07:43:57.420Z,1008.65
2018-10-11T07:44:57.420Z,1008.63
2018-10-11T07:46:57.995Z,1008.58
2018-10-11T07:47:57.677Z,1008.61
2018-10-11T07:49:57.349Z,1008.64
2018-10-11T07:50:57.400Z,1008.61
2018-10-11T07:51:57.494Z,1008.63
2018-10-11T07:53:57.697Z,1008.65
2018-10-11T07:54:57.384Z,1008.65
2018-10-11T07:55:57.424Z,1008.63
2018-10-11T07:56:57.251Z,1008.61
2018-10-11T07:57:57.218Z,1008.61
2018-10-11T07:58:58.136Z,1008.68
2018-10-11T07:59:57.378Z,1008.65
2018-10-11T08:00:57.372Z,1008.65
2018-10-11T08:01:57.157Z,1008.63
2018-10-11T08:02:57.140Z,1008.71
2018-10-11T08:03:57.133Z,1008.70
2018-10-11T08:04:57.415Z,1008.67
2018-10-11T08:06:57.157Z,1008.62
2018-10-11T08:07:57.074Z,1008.61
2018-10-11T08:08:57.073Z,1008.66
2018-10-11T08:09:57.381Z,1008.64
2018-10-11T08:10:57.108Z,1008.69
2018-10-11T08:11:57.447Z,1008.67
2018-10-11T08:12:57.060Z,1008.66
2018-10-11T08:13:57.101Z,1008.68
2018-10-11T08:14:57.138Z,1008.62
2018-10-11T08:15:56.991Z,1008.68
2018-10-11T08:16:57.076Z,1008.71
2018-10-11T08:17:57.260Z,1008.69
2018-10-11T08:18:57.462Z,1008.66
2018-10-11T08:19:56.965Z,1008.71
2018-10-11T08:20:56.887Z,1008.73
2018-10-11T08:21:56.933Z,1008.72
2018-10-11T08:22:56.937Z,1008.70
2018-10-11T08:23:56.847Z,1008.73
2018-10-11T08:25:57.627Z,1008.80
2018-10-11T08:26:56.899Z,1008.77
2018-10-11T08:27:56.799Z,1008.78
2018-10-11T08:28:56.772Z,1008.73
2018-10-11T08:29:56.841Z,1008.71
2018-10-11T08:30:56.757Z,1008.67
2018-10-11T08:31:56.730Z,1008.71
2018-10-11T08:32:57.057Z,1008.73
2018-10-11T08:33:56.998Z,1008.80
2018-10-11T08:34:56.719Z,1008.82
2018-10-11T08:35:56.730Z,1008.83
2018-10-11T08:36:56.753Z,1008.85
2018-10-11T08:37:56.929Z,1008.86
2018-10-11T08:38:56.663Z,1008.89
2018-10-11T08:39:57.063Z,1008.88
2018-10-11T08:40:56.614Z,1008.85
2018-10-11T08:41:56.656Z,1008.92
2018-10-11T08:42:56.586Z,1009.02
2018-10-11T08:43:56.742Z,1009.02
2018-10-11T08:44:56.625Z,1008.99
2018-10-11T08:45:56.555Z,1008.97
2018-10-11T08:46:56.892Z,1008.92
2018-10-11T08:47:56.699Z,1008.98
2018-10-11T08:48:56.566Z,1008.90
2018-10-11T08:49:56.496Z,1008.93
2018-10-11T08:50:56.551Z,1008.86
2018-10-11T08:51:56.536Z,1008.85
2018-10-11T08:52:56.467Z,1008.80
2018-10-11T08:53:56.750Z,1008.74
2018-10-11T08:54:56.442Z,1008.72
2018-10-11T08:55:56.478Z,1008.71
2018-10-11T08:57:56.533Z,1008.75
2018-10-11T08:58:56.389Z,1008.74
2018-10-11T08:59:56.736Z,1008.76
2018-10-11T09:00:56.383Z,1008.71
2018-10-11T09:01:56.393Z,1008.68
2018-10-11T09:02:56.342Z,1008.70
2018-10-11T09:03:56.502Z,1008.69
2018-10-11T09:04:56.486Z,1008.72
2018-10-11T09:05:56.601Z,1008.71
2018-10-11T09:06:56.293Z,1008.81
2018-10-11T09:07:56.336Z,1008.79
2018-10-11T09:09:56.251Z,1008.84
2018-10-11T09:10:56.292Z,1008.81
2018-10-11T09:11:56.585Z,1008.81
2018-10-11T09:12:56.214Z,1008.76
2018-10-11T09:13:56.202Z,1008.81
2018-10-11T09:14:56.193Z,1008.77
2018-10-11T09:15:56.187Z,1008.79
2018-10-11T09:16:56.179Z,1008.79
2018-10-11T09:18:56.512Z,1008.75
2018-10-11T09:19:56.134Z,1008.75
2018-10-11T09:20:56.133Z,1008.76
2018-10-11T09:21:56.113Z,1008.82
2018-10-11T09:22:56.112Z,1008.80
2018-10-11T09:23:56.114Z,1008.80
2018-10-11T09:24:56.420Z,1008.79
2018-10-11T09:25:56.290Z,1008.86
2018-10-11T09:27:56.234Z,1008.87
2018-10-11T09:29:56.041Z,1008.89
2018-10-11T09:30:56.075Z,1008.91
2018-10-11T09:31:56.351Z,1008.86
2018-10-11T09:32:56.103Z,1008.84
2018-10-11T09:33:56.021Z,1008.79
2018-10-11T09:34:55.964Z,1008.73
2018-10-11T09:35:56.004Z,1008.76
2018-10-11T09:36:56.027Z,1008.75
2018-10-11T09:37:56.277Z,1008.77
2018-10-11T09:38:56.001Z,1008.77
2018-10-11T09:39:56.111Z,1008.79
2018-10-11T09:40:56.016Z,1008.78
2018-10-11T09:41:55.875Z,1008.73
2018-10-11T09:42:55.916Z,1008.76
2018-10-11T09:43:55.879Z,1008.74
2018-10-11T09:44:56.154Z,1008.79
2018-10-11T09:45:55.896Z,1008.81
2018-10-11T09:46:55.856Z,1008.83
2018-10-11T09:47:55.841Z,1008.86
2018-10-11T09:48:55.966Z,1008.95
2018-10-11T09:49:55.799Z,1008.96
2018-10-11T09:50:56.133Z,1008.95
2018-10-11T09:51:56.077Z,1008.99
2018-10-11T09:52:56.212Z,1009.02
2018-10-11T09:53:55.755Z,1008.97
2018-10-11T09:54:55.847Z,1008.95
2018-10-11T09:55:55.759Z,1008.91
2018-10-11T09:56:55.773Z,1008.86
2018-10-11T09:57:55.732Z,1008.81
2018-10-11T09:58:56.466Z,1008.74
2018-10-11T09:59:55.693Z,1008.73
2018-10-11T10:00:55.678Z,1008.71
2018-10-11T10:01:55.692Z,1008.72
2018-10-11T10:02:55.717Z,1008.74
2018-10-11T10:03:55.666Z,1008.77
2018-10-11T10:04:55.675Z,1008.79
2018-10-11T10:06:55.629Z,1008.78
2018-10-11T10:07:55.723Z,1008.84
2018-10-11T10:08:55.662Z,1008.82
2018-10-11T10:09:55.659Z,1008.90
2018-10-11T10:10:55.665Z,1008.85
2018-10-11T10:11:55.727Z,1008.84
2018-10-11T10:12:55.948Z,1008.83
2018-10-11T10:13:55.671Z,1008.85
2018-10-11T10:14:55.676Z,1008.82
2018-10-11T10:15:55.622Z,1008.82
2018-10-11T10:16:56.636Z,1008.82
2018-10-11T10:17:55.529Z,1009.00
2018-10-11T10:18:55.575Z,1008.78
2018-10-11T10:19:55.857Z,1008.81
2018-10-11T10:20:55.526Z,1008.78
2018-10-11T10:21:55.527Z,1008.79
2018-10-11T10:22:55.490Z,1008.74
2018-10-11T10:23:55.624Z,1008.74
2018-10-11T10:24:55.559Z,1008.75
2018-10-11T10:26:55.852Z,1008.70
2018-10-11T10:27:55.473Z,1008.70
2018-10-11T10:28:55.453Z,1008.72
2018-10-11T10:29:55.461Z,1008.69
2018-10-11T10:30:55.471Z,1008.79
2018-10-11T10:31:55.541Z,1008.70
2018-10-11T10:32:55.712Z,1008.73
2018-10-11T10:33:55.425Z,1008.78
2018-10-11T10:34:55.474Z,1008.73
2018-10-11T10:35:55.438Z,1008.76
2018-10-11T10:36:55.435Z,1008.79
2018-10-11T10:37:55.430Z,1008.65
2018-10-11T10:38:55.726Z,1008.66
2018-10-11T10:39:55.421Z,1008.66
2018-10-11T10:40:55.371Z,1008.65
2018-10-11T10:41:55.392Z,1008.56
2018-10-11T10:42:55.418Z,1008.76
2018-10-11T10:43:55.432Z,1008.48
2018-10-11T10:44:55.669Z,1008.60
2018-10-11T10:45:55.377Z,1008.62
2018-10-11T10:46:55.334Z,1008.67
2018-10-11T10:47:55.965Z,1008.69
2018-10-11T10:48:55.435Z,1008.51
2018-10-11T10:49:55.356Z,1008.67
2018-10-11T10:50:55.699Z,1008.67
2018-10-11T10:51:55.545Z,1008.74
2018-10-11T10:52:55.521Z,1008.59
2018-10-11T10:53:55.322Z,1008.60
2018-10-11T10:54:55.285Z,1008.68
2018-10-11T10:55:55.314Z,1008.70
2018-10-11T10:56:55.663Z,1008.64
2018-10-11T10:57:55.259Z,1008.62
2018-10-11T10:58:55.391Z,1008.61
2018-10-11T10:59:55.317Z,1008.66
2018-10-11T11:00:55.228Z,1008.69
2018-10-11T11:01:55.223Z,1008.53
2018-10-11T11:02:56.132Z,1008.69
2018-10-11T11:03:55.294Z,1008.70
2018-10-11T11:04:55.222Z,1008.70
2018-10-11T11:05:55.294Z,1008.71
2018-10-11T11:06:55.213Z,1008.72
2018-10-11T11:07:55.194Z,1008.69
2018-10-11T11:08:55.932Z,1008.72
2018-10-11T11:09:55.235Z,1008.81
2018-10-11T11:10:55.180Z,1008.87
2018-10-11T11:11:55.178Z,1008.91
2018-10-11T11:12:55.163Z,1009.04
2018-10-11T11:13:55.232Z,1009.12
2018-10-11T11:14:55.804Z,1009.00
2018-10-11T11:16:55.201Z,1009.05
2018-10-11T11:18:55.275Z,1009.09
2018-10-11T11:19:55.201Z,1009.02
2018-10-11T11:20:57.508Z,1008.95
2018-10-11T11:21:55.260Z,1009.09
2018-10-11T11:22:55.172Z,1009.11
2018-10-11T11:23:55.132Z,1009.07
2018-10-11T11:24:55.169Z,1008.97
2018-10-11T11:25:55.109Z,1008.99
2018-10-11T11:26:55.105Z,1008.98
2018-10-11T11:27:56.207Z,1008.91
2018-10-11T11:28:55.143Z,1008.90
2018-10-11T11:29:55.179Z,1008.81
2018-10-11T11:31:55.167Z,1008.86
2018-10-11T11:32:55.129Z,1008.88
2018-10-11T11:33:56.486Z,1008.90
2018-10-11T11:34:55.409Z,1008.88
2018-10-11T11:35:55.346Z,1008.84
2018-10-11T11:36:55.419Z,1008.88
2018-10-11T11:37:55.057Z,1008.85
2018-10-11T11:38:55.437Z,1008.85
2018-10-11T11:39:55.973Z,1008.91
2018-10-11T11:40:55.105Z,1008.94
2018-10-11T11:41:55.352Z,1008.91
2018-10-11T11:42:55.166Z,1008.97
2018-10-11T11:43:55.103Z,1008.90
2018-10-11T11:44:55.093Z,1008.97
2018-10-11T11:45:55.614Z,1009.00
2018-10-11T11:46:55.061Z,1008.97
2018-10-11T11:47:55.040Z,1009.01
2018-10-11T11:48:55.048Z,1009.02
2018-10-11T11:49:55.021Z,1009.01
2018-10-11T11:50:55.044Z,1008.98
2018-10-11T11:51:55.238Z,1008.94
2018-10-11T11:52:55.002Z,1008.99
2018-10-11T11:53:55.005Z,1008.99
2018-10-11T11:54:55.124Z,1008.95
2018-10-11T11:55:55.013Z,1008.99
2018-10-11T11:56:55.005Z,1009.06
2018-10-11T11:57:55.095Z,1009.10
2018-10-11T11:59:54.997Z,1009.19
2018-10-11T12:00:55.336Z,1009.20
2018-10-11T12:01:54.996Z,1009.27
2018-10-11T12:02:55.627Z,1009.23
2018-10-11T12:03:55.004Z,1009.25
2018-10-11T12:04:55.015Z,1009.25
2018-10-11T12:05:54.979Z,1009.25
2018-10-11T12:06:55.054Z,1009.24
2018-10-11T12:07:55.264Z,1009.28
2018-10-11T12:08:54.968Z,1009.23
2018-10-11T12:09:54.959Z,1009.23
2018-10-11T12:10:55.004Z,1009.27
2018-10-11T12:11:54.953Z,1009.28
2018-10-11T12:12:55.020Z,1009.28
2018-10-11T12:13:56.196Z,1009.34
2018-10-11T12:14:54.960Z,1009.29
2018-10-11T12:15:54.944Z,1009.28
2018-10-11T12:16:54.953Z,1009.25
2018-10-11T12:17:54.933Z,1009.21
2018-10-11T12:18:55.182Z,1009.29
2018-10-11T12:19:55.278Z,1009.30
2018-10-11T12:20:54.939Z,1009.25
2018-10-11T12:21:55.019Z,1009.29
2018-10-11T12:23:54.922Z,1009.33
2018-10-11T12:24:55.273Z,1009.29
2018-10-11T12:25:55.263Z,1009.37
2018-10-11T12:26:55.262Z,1009.31
2018-10-11T12:27:55.014Z,1009.24
2018-10-11T12:28:55.044Z,1009.32
2018-10-11T12:29:54.917Z,1009.20
2018-10-11T12:30:54.919Z,1009.15
2018-10-11T12:31:55.511Z,1009.23
2018-10-11T12:32:54.922Z,1009.20
2018-10-11T12:33:54.907Z,1009.25
2018-10-11T12:34:54.901Z,1009.30
2018-10-11T12:35:55.455Z,1009.28
2018-10-11T12:36:54.985Z,1009.27
2018-10-11T12:37:55.196Z,1009.31
2018-10-11T12:38:55.774Z,1009.22
2018-10-11T12:39:54.898Z,1009.35
2018-10-11T12:40:54.890Z,1009.40
2018-10-11T12:41:54.935Z,1008.91
2018-10-11T12:42:54.899Z,1009.35
2018-10-11T12:43:55.563Z,1009.32
2018-10-11T12:44:55.165Z,1009.32
2018-10-11T12:45:55.123Z,1009.35
2018-10-11T12:48:54.890Z,1009.29
2018-10-11T12:49:55.270Z,1009.21
2018-10-11T12:50:54.957Z,1009.40
2018-10-11T12:51:54.976Z,1009.33
2018-10-11T12:52:54.846Z,1009.22
2018-10-11T12:53:54.896Z,1009.11
2018-10-11T12:54:54.900Z,1009.38